createdAt,value
2022-08-21T00:02:17.945Z,16.10
2022-08-21T00:04:57.179Z,16.00
2022-08-21T00:07:34.161Z,15.80
2022-08-21T00:10:13.228Z,16.90
2022-08-21T00:12:50.549Z,16.50
2022-08-21T00:15:31.591Z,16.90
2022-08-21T00:18:10.222Z,17.70
2022-08-21T00:20:48.558Z,17.00
2022-08-21T00:23:24.820Z,17.10
2022-08-21T00:26:01.137Z,17.20
2022-08-21T00:28:38.694Z,16.20
2022-08-21T00:31:14.815Z,16.40
2022-08-21T00:33:51.167Z,16.50
2022-08-21T00:36:27.150Z,16.30
2022-08-21T00:39:03.557Z,17.00
2022-08-21T00:41:42.173Z,17.50
2022-08-21T00:44:19.912Z,17.00
2022-08-21T00:46:55.728Z,16.60
2022-08-21T00:49:31.668Z,17.60
2022-08-21T00:52:11.334Z,17.50
2022-08-21T00:54:49.163Z,16.40
2022-08-21T00:57:36.069Z,17.00
2022-08-21T01:00:26.345Z,16.20
2022-08-21T01:03:09.043Z,16.70
2022-08-21T01:05:47.783Z,16.30
2022-08-21T01:08:25.397Z,16.50
2022-08-21T01:11:03.249Z,16.90
2022-08-21T01:13:47.130Z,17.70
2022-08-21T01:16:26.417Z,17.30
2022-08-21T01:19:02.726Z,17.00
2022-08-21T01:21:38.761Z,18.20
2022-08-21T01:24:15.685Z,17.30
2022-08-21T01:26:53.050Z,18.90
2022-08-21T01:29:39.945Z,17.90
2022-08-21T01:32:21.373Z,19.10
2022-08-21T01:34:57.862Z,18.00
2022-08-21T01:37:34.297Z,18.20
2022-08-21T01:40:13.549Z,17.80
2022-08-21T01:42:50.489Z,17.40
2022-08-21T01:45:27.041Z,18.00
2022-08-21T01:48:03.665Z,18.20
2022-08-21T01:50:40.737Z,18.40
2022-08-21T01:53:16.671Z,17.80
2022-08-21T01:55:52.646Z,18.30
2022-08-21T01:58:28.609Z,19.00
2022-08-21T02:01:05.132Z,18.30
2022-08-21T02:03:42.780Z,18.40
2022-08-21T02:06:21.309Z,18.30
2022-08-21T02:08:57.573Z,17.70
2022-08-21T02:11:35.525Z,18.30
2022-08-21T02:14:13.956Z,18.40
2022-08-21T02:16:50.856Z,17.80
2022-08-21T02:19:41.828Z,18.10
2022-08-21T02:22:17.919Z,17.80
2022-08-21T02:24:55.368Z,17.30
2022-08-21T02:27:39.035Z,18.60
2022-08-21T02:30:23.112Z,19.30
2022-08-21T02:32:59.511Z,18.90
2022-08-21T02:35:36.382Z,18.00
2022-08-21T02:38:23.274Z,17.80
2022-08-21T02:41:00.412Z,17.70
2022-08-21T02:43:36.969Z,17.90
2022-08-21T02:46:16.785Z,18.20
2022-08-21T02:48:52.770Z,17.60
2022-08-21T02:51:28.935Z,17.30
2022-08-21T02:54:04.945Z,18.10
2022-08-21T02:56:40.899Z,17.60
2022-08-21T02:59:17.082Z,19.00
2022-08-21T03:01:53.168Z,18.20
2022-08-21T03:04:29.133Z,19.10
2022-08-21T03:07:05.485Z,18.80
2022-08-21T03:09:55.359Z,17.50
2022-08-21T03:12:31.953Z,18.50
2022-08-21T03:15:11.385Z,17.70
2022-08-21T03:17:48.678Z,18.60
2022-08-21T03:20:30.739Z,18.00
2022-08-21T03:23:12.545Z,17.80
2022-08-21T03:25:52.203Z,17.50
2022-08-21T03:28:31.759Z,19.00
2022-08-21T03:31:08.232Z,18.00
2022-08-21T03:33:44.107Z,19.70
2022-08-21T03:36:20.826Z,19.30
2022-08-21T03:38:56.948Z,18.90
2022-08-21T03:41:33.069Z,20.10
2022-08-21T03:44:09.816Z,19.90
2022-08-21T03:46:45.781Z,20.80
2022-08-21T03:49:21.665Z,20.20
2022-08-21T03:51:59.746Z,20.10
2022-08-21T03:54:36.130Z,20.10
2022-08-21T03:57:13.183Z,18.90
2022-08-21T03:59:49.709Z,18.80
2022-08-21T04:02:26.556Z,19.20
2022-08-21T04:05:02.512Z,19.10
2022-08-21T04:07:39.006Z,20.30
2022-08-21T04:10:16.643Z,18.50
2022-08-21T04:12:53.265Z,18.70
2022-08-21T04:15:30.849Z,19.50
2022-08-21T04:18:10.373Z,20.40
2022-08-21T04:20:50.853Z,18.70
2022-08-21T04:23:27.970Z,18.40
2022-08-21T04:26:04.345Z,19.40
2022-08-21T04:28:40.354Z,19.80
2022-08-21T04:31:16.604Z,19.70
2022-08-21T04:33:52.676Z,20.50
2022-08-21T04:36:28.811Z,21.20
2022-08-21T04:39:05.048Z,20.80
2022-08-21T04:41:42.633Z,21.40
2022-08-21T04:44:18.900Z,20.60
2022-08-21T04:46:55.056Z,20.20
2022-08-21T04:49:32.137Z,20.50
2022-08-21T04:52:09.226Z,20.70
2022-08-21T04:54:47.459Z,20.60
2022-08-21T04:57:24.642Z,21.30
2022-08-21T05:00:25.512Z,20.60
2022-08-21T05:03:05.454Z,21.70
2022-08-21T05:05:42.222Z,20.80
2022-08-21T05:08:26.571Z,20.80
2022-08-21T05:11:02.833Z,20.10
2022-08-21T05:13:39.374Z,19.40
2022-08-21T05:16:15.284Z,19.10
2022-08-21T05:19:12.407Z,19.20
2022-08-21T05:21:51.200Z,19.10
2022-08-21T05:24:27.883Z,17.70
2022-08-21T05:27:04.749Z,19.70
2022-08-21T05:29:40.623Z,20.20
2022-08-21T05:32:19.241Z,18.30
2022-08-21T05:34:55.178Z,18.40
2022-08-21T05:37:31.248Z,19.10
2022-08-21T05:40:22.720Z,18.40
2022-08-21T05:43:01.259Z,19.10
2022-08-21T05:45:41.511Z,18.70
2022-08-21T05:48:24.782Z,18.00
2022-08-21T05:51:05.915Z,17.80
2022-08-21T05:53:44.202Z,17.70
2022-08-21T05:56:20.812Z,16.10
2022-08-21T05:58:56.855Z,16.90
2022-08-21T06:01:33.018Z,16.80
2022-08-21T06:04:10.338Z,15.70
2022-08-21T06:06:46.469Z,16.00
2022-08-21T06:09:22.626Z,16.40
2022-08-21T06:11:59.216Z,15.10
2022-08-21T06:14:35.466Z,17.20
2022-08-21T06:17:14.782Z,16.40
2022-08-21T06:19:55.166Z,16.10
2022-08-21T06:22:31.497Z,16.60
2022-08-21T06:25:10.317Z,15.40
2022-08-21T06:27:46.500Z,15.70
2022-08-21T06:30:23.713Z,20.20
2022-08-21T06:33:00.141Z,16.20
2022-08-21T06:35:41.517Z,16.70
2022-08-21T06:40:52.136Z,16.00
2022-08-21T06:43:39.339Z,14.50
2022-08-21T06:46:16.031Z,14.90
2022-08-21T06:48:52.400Z,16.20
2022-08-21T06:51:29.297Z,17.40
2022-08-21T06:54:05.677Z,16.00
2022-08-21T06:56:41.768Z,18.60
2022-08-21T06:59:17.831Z,16.00
2022-08-21T07:01:53.844Z,17.50
2022-08-21T07:04:30.976Z,15.80
2022-08-21T07:07:07.247Z,15.50
2022-08-21T07:09:43.269Z,15.90
2022-08-21T07:12:19.360Z,16.00
2022-08-21T07:14:55.320Z,16.50
2022-08-21T07:17:31.275Z,15.80
2022-08-21T07:20:09.803Z,14.70
2022-08-21T07:22:46.570Z,15.20
2022-08-21T07:25:23.173Z,15.00
2022-08-21T07:27:59.147Z,17.20
2022-08-21T07:30:35.822Z,16.80
2022-08-21T07:33:11.926Z,17.80
2022-08-21T07:35:48.251Z,19.00
2022-08-21T07:38:24.875Z,17.90
2022-08-21T07:41:04.498Z,15.40
2022-08-21T07:43:45.785Z,15.60
2022-08-21T07:46:23.070Z,15.40
2022-08-21T07:48:59.362Z,16.70
2022-08-21T07:51:36.658Z,16.30
2022-08-21T07:54:13.130Z,16.40
2022-08-21T07:56:53.406Z,16.20
2022-08-21T07:59:29.464Z,16.30
2022-08-21T08:02:05.590Z,13.70
2022-08-21T08:04:50.971Z,16.00
2022-08-21T08:07:28.342Z,16.00
2022-08-21T08:10:04.870Z,18.40
2022-08-21T08:12:44.393Z,17.60
2022-08-21T08:15:26.419Z,20.20
2022-08-21T08:18:03.156Z,17.00
2022-08-21T08:20:39.469Z,16.90
2022-08-21T08:23:17.169Z,16.20
2022-08-21T08:25:53.161Z,16.00
2022-08-21T08:28:29.689Z,16.20
2022-08-21T08:31:06.645Z,16.40
2022-08-21T08:33:42.834Z,16.00
2022-08-21T08:36:32.857Z,16.20
2022-08-21T08:39:10.986Z,17.60
2022-08-21T08:41:57.898Z,21.20
2022-08-21T08:44:35.726Z,16.30
2022-08-21T08:47:15.805Z,15.80
2022-08-21T08:50:03.756Z,15.70
2022-08-21T08:52:47.365Z,15.50
2022-08-21T08:55:34.534Z,15.80
2022-08-21T08:58:13.813Z,15.30
2022-08-21T09:00:56.147Z,15.20
2022-08-21T09:03:33.710Z,14.00
2022-08-21T09:06:35.393Z,14.50
2022-08-21T09:09:32.456Z,21.00
2022-08-21T09:12:19.129Z,15.60
2022-08-21T09:15:19.354Z,15.00
2022-08-21T09:18:23.806Z,14.80
2022-08-21T09:21:16.650Z,15.50
2022-08-21T09:24:11.955Z,15.20
2022-08-21T09:27:03.217Z,14.20
2022-08-21T09:32:24.269Z,14.20
2022-08-21T09:35:20.952Z,14.10
2022-08-21T09:38:03.299Z,14.50
2022-08-21T09:40:45.836Z,14.30
2022-08-21T09:43:27.128Z,13.70
2022-08-21T09:46:22.694Z,13.20
2022-08-21T09:49:02.522Z,13.70
2022-08-21T09:51:40.641Z,13.00
2022-08-21T09:54:28.300Z,13.20
2022-08-21T09:57:36.476Z,13.50
2022-08-21T10:00:32.932Z,12.60
2022-08-21T10:03:25.963Z,12.60
2022-08-21T10:06:10.399Z,13.10
2022-08-21T10:08:47.362Z,12.90
2022-08-21T10:11:32.897Z,12.50
2022-08-21T10:14:29.009Z,12.50
2022-08-21T10:17:16.602Z,13.70
2022-08-21T10:20:12.374Z,14.20
2022-08-21T10:23:16.920Z,13.30
2022-08-21T10:26:13.149Z,12.50
2022-08-21T10:29:11.240Z,11.90
2022-08-21T10:32:02.911Z,12.40
2022-08-21T10:35:02.203Z,13.00
2022-08-21T10:38:00.930Z,12.70
2022-08-21T10:40:50.798Z,12.50
2022-08-21T10:43:45.590Z,11.60
2022-08-21T10:46:39.411Z,12.70
2022-08-21T10:49:38.475Z,12.10
2022-08-21T10:52:58.430Z,12.00
2022-08-21T10:55:46.925Z,12.30
2022-08-21T10:58:31.699Z,12.30
2022-08-21T11:01:14.394Z,12.20
2022-08-21T11:04:05.833Z,12.00
2022-08-21T11:06:48.724Z,12.60
2022-08-21T11:09:28.965Z,12.50
2022-08-21T11:12:21.772Z,12.00
2022-08-21T11:15:29.385Z,11.90
2022-08-21T11:18:23.870Z,12.10
2022-08-21T11:21:17.158Z,12.90
2022-08-21T11:24:05.751Z,12.80
2022-08-21T11:26:54.632Z,11.60
2022-08-21T11:29:37.252Z,12.20
2022-08-21T11:33:00.171Z,12.80
2022-08-21T11:35:53.617Z,9.60
2022-08-21T11:38:42.497Z,8.80
2022-08-21T11:41:32.200Z,7.70
2022-08-21T11:44:26.439Z,7.20
2022-08-21T11:47:14.491Z,6.80
2022-08-21T11:50:29.720Z,6.10
2022-08-21T11:53:31.128Z,5.90
2022-08-21T11:56:14.108Z,5.60
2022-08-21T11:58:57.866Z,6.10
2022-08-21T12:01:41.251Z,5.50
2022-08-21T12:04:33.042Z,5.20
2022-08-21T12:07:34.854Z,4.20
2022-08-21T12:10:22.101Z,4.10
2022-08-21T12:13:11.019Z,4.10
2022-08-21T12:15:47.025Z,4.00
2022-08-21T12:18:35.570Z,3.40
2022-08-21T12:21:27.617Z,3.50
2022-08-21T12:24:35.714Z,4.10
2022-08-21T12:27:42.990Z,3.80
2022-08-21T12:30:41.163Z,3.90
2022-08-21T12:33:33.434Z,5.00
2022-08-21T12:36:16.691Z,6.50
2022-08-21T12:38:58.423Z,6.40
2022-08-21T12:41:46.605Z,6.50
2022-08-21T12:44:36.007Z,6.40
2022-08-21T12:47:26.644Z,6.90
2022-08-21T12:50:11.411Z,6.40
2022-08-21T12:52:58.284Z,6.10
2022-08-21T12:55:42.465Z,5.80
2022-08-21T12:58:27.552Z,5.80
2022-08-21T13:01:09.741Z,5.90
2022-08-21T13:03:47.556Z,5.90
2022-08-21T13:06:43.707Z,5.50
2022-08-21T13:09:30.243Z,5.40
2022-08-21T13:12:11.333Z,5.20
2022-08-21T13:14:50.989Z,4.80
2022-08-21T13:17:33.173Z,5.60
2022-08-21T13:20:24.261Z,4.80
2022-08-21T13:23:02.174Z,5.40
2022-08-21T13:25:42.411Z,4.60
2022-08-21T13:28:19.162Z,4.50
2022-08-21T13:30:58.279Z,3.80
2022-08-21T13:33:37.710Z,4.10
2022-08-21T13:36:22.416Z,4.10
2022-08-21T13:39:00.413Z,3.60
2022-08-21T13:41:41.360Z,3.20
2022-08-21T13:44:34.564Z,3.10
2022-08-21T13:47:15.355Z,3.00
2022-08-21T13:49:59.252Z,3.50
2022-08-21T13:52:35.882Z,3.10
2022-08-21T13:55:20.374Z,3.20
2022-08-21T13:58:09.507Z,2.70
2022-08-21T14:00:54.371Z,2.80
2022-08-21T14:03:45.066Z,3.10
2022-08-21T14:06:25.017Z,3.00
2022-08-21T14:09:12.726Z,3.00
2022-08-21T14:11:49.695Z,3.10
2022-08-21T14:14:32.014Z,3.00
2022-08-21T14:17:25.392Z,3.40
2022-08-21T14:20:13.927Z,3.40
2022-08-21T14:22:51.691Z,3.30
2022-08-21T14:25:44.748Z,3.50
2022-08-21T14:28:33.074Z,3.30
2022-08-21T14:31:30.890Z,3.60
2022-08-21T14:34:17.316Z,3.30
2022-08-21T14:36:58.989Z,3.70
2022-08-21T14:39:35.003Z,3.40
2022-08-21T14:42:11.735Z,3.80
2022-08-21T14:44:48.259Z,3.50
2022-08-21T14:47:24.662Z,3.80
2022-08-21T14:50:00.569Z,3.70
2022-08-21T14:52:37.802Z,3.60
2022-08-21T14:55:17.057Z,3.60
2022-08-21T14:57:56.869Z,3.80
2022-08-21T15:00:35.758Z,3.60
2022-08-21T15:03:12.405Z,3.30
2022-08-21T15:05:48.355Z,3.30
2022-08-21T15:08:24.373Z,3.20
2022-08-21T15:11:11.848Z,3.30
2022-08-21T15:13:54.266Z,3.30
2022-08-21T15:16:32.270Z,3.40
2022-08-21T15:19:08.216Z,3.20
2022-08-21T15:21:44.371Z,3.30
2022-08-21T15:24:20.898Z,3.30
2022-08-21T15:26:59.132Z,3.30
2022-08-21T15:29:36.867Z,3.40
2022-08-21T15:32:31.421Z,3.00
2022-08-21T15:35:09.549Z,3.30
2022-08-21T15:37:45.554Z,2.90
2022-08-21T15:40:22.743Z,3.10
2022-08-21T15:43:05.378Z,2.90
2022-08-21T15:45:41.463Z,2.80
2022-08-21T15:48:17.889Z,2.90
2022-08-21T15:50:54.397Z,2.50
2022-08-21T15:53:33.125Z,3.10
2022-08-21T15:56:19.920Z,3.50
2022-08-21T15:59:01.731Z,3.80
2022-08-21T16:01:44.716Z,3.80
2022-08-21T16:04:28.618Z,4.30
2022-08-21T16:07:09.073Z,4.70
2022-08-21T16:12:28.878Z,5.50
2022-08-21T16:15:09.692Z,6.30
2022-08-21T16:17:51.382Z,5.90
2022-08-21T16:20:32.825Z,6.90
2022-08-21T16:23:08.879Z,7.20
2022-08-21T16:25:46.002Z,6.70
2022-08-21T16:28:24.795Z,6.20
2022-08-21T16:31:01.498Z,6.70
2022-08-21T16:33:43.267Z,6.40
2022-08-21T16:36:20.885Z,6.50
2022-08-21T16:38:58.139Z,6.50
2022-08-21T16:41:37.532Z,7.10
2022-08-21T16:44:13.903Z,7.30
2022-08-21T16:46:50.714Z,5.90
2022-08-21T16:49:26.592Z,5.80
2022-08-21T16:52:02.933Z,6.00
2022-08-21T16:54:38.938Z,6.00
2022-08-21T16:57:15.216Z,5.70
2022-08-21T16:59:51.418Z,5.10
2022-08-21T17:02:36.284Z,4.90
2022-08-21T17:05:14.472Z,4.90
2022-08-21T17:07:50.856Z,4.70
2022-08-21T17:10:27.240Z,3.90
2022-08-21T17:13:09.029Z,4.80
2022-08-21T17:15:46.706Z,4.50
2022-08-21T17:18:26.780Z,4.50
2022-08-21T17:21:03.208Z,4.80
2022-08-21T17:23:39.308Z,4.90
2022-08-21T17:26:17.039Z,4.00
2022-08-21T17:28:54.914Z,5.00
2022-08-21T17:31:32.441Z,4.00
2022-08-21T17:34:10.236Z,4.30
2022-08-21T17:36:47.194Z,3.90
2022-08-21T17:39:26.734Z,4.30
2022-08-21T17:42:10.464Z,3.80
2022-08-21T17:44:48.740Z,3.90
2022-08-21T17:47:25.002Z,4.30
2022-08-21T17:50:00.983Z,4.60
2022-08-21T17:52:37.689Z,4.40
2022-08-21T17:55:16.638Z,3.60
2022-08-21T17:57:55.834Z,3.50
2022-08-21T18:00:33.729Z,4.40
2022-08-21T18:03:17.365Z,3.80
2022-08-21T18:05:57.024Z,3.70
2022-08-21T18:08:32.995Z,3.80
2022-08-21T18:11:10.369Z,3.70
2022-08-21T18:13:51.174Z,20.00
2022-08-21T18:16:28.361Z,4.30
2022-08-21T18:19:07.153Z,4.20
2022-08-21T18:21:43.788Z,4.40
2022-08-21T18:24:19.838Z,4.10
2022-08-21T18:26:56.977Z,4.60
2022-08-21T18:29:33.290Z,4.20
2022-08-21T18:32:31.183Z,4.10
2022-08-21T18:35:11.541Z,3.70
2022-08-21T18:37:48.555Z,3.90
2022-08-21T18:40:25.093Z,4.00
2022-08-21T18:43:04.273Z,4.10
2022-08-21T18:45:40.825Z,3.80
2022-08-21T18:48:19.798Z,4.00
2022-08-21T18:50:58.860Z,3.90
2022-08-21T18:53:36.898Z,3.90
2022-08-21T18:56:15.898Z,3.80
2022-08-21T18:58:57.619Z,3.40
2022-08-21T19:01:35.665Z,3.10
2022-08-21T19:04:29.884Z,3.20
2022-08-21T19:07:10.863Z,3.10
2022-08-21T19:12:45.789Z,2.80
2022-08-21T19:15:24.537Z,2.80
2022-08-21T19:18:03.694Z,3.00
2022-08-21T19:20:42.902Z,3.20
2022-08-21T19:26:19.213Z,4.10
2022-08-21T19:28:59.642Z,3.20
2022-08-21T19:31:43.183Z,3.50
2022-08-21T19:34:23.704Z,3.60
2022-08-21T19:37:00.627Z,4.30
2022-08-21T19:39:42.449Z,4.00
2022-08-21T19:42:28.624Z,5.30
2022-08-21T19:45:07.280Z,5.90
2022-08-21T19:47:48.732Z,5.40
2022-08-21T19:50:25.751Z,6.00
2022-08-21T19:53:02.050Z,13.00
2022-08-21T19:55:39.093Z,6.40
2022-08-21T19:58:34.368Z,6.30
2022-08-21T20:01:16.762Z,4.70
2022-08-21T20:03:55.487Z,4.90
2022-08-21T20:06:34.894Z,3.70
2022-08-21T20:09:12.541Z,3.40
2022-08-21T20:11:52.325Z,3.50
2022-08-21T20:14:33.543Z,3.40
2022-08-21T20:17:15.242Z,3.00
2022-08-21T20:22:31.323Z,3.20
2022-08-21T20:25:09.513Z,3.00
2022-08-21T20:27:46.559Z,3.10
2022-08-21T20:30:24.176Z,3.30
2022-08-21T20:33:02.535Z,3.30
2022-08-21T20:35:39.312Z,3.30
2022-08-21T20:38:15.511Z,3.10
2022-08-21T20:40:54.770Z,3.00
2022-08-21T20:43:32.863Z,2.90
2022-08-21T20:46:10.579Z,3.20
2022-08-21T20:48:49.814Z,2.90
2022-08-21T20:51:32.158Z,2.90
2022-08-21T20:54:26.771Z,2.70
2022-08-21T21:00:17.446Z,3.20
2022-08-21T21:03:01.083Z,2.90
2022-08-21T21:05:49.320Z,2.70
2022-08-21T21:08:32.653Z,3.00
2022-08-21T21:11:17.015Z,2.80
2022-08-21T21:14:01.888Z,2.90
2022-08-21T21:16:51.200Z,7.90
2022-08-21T21:19:41.436Z,3.00
2022-08-21T21:22:26.339Z,2.40
2022-08-21T21:25:14.257Z,2.70
2022-08-21T21:27:58.704Z,2.70
2022-08-21T21:30:46.504Z,3.30
2022-08-21T21:33:23.320Z,3.20
2022-08-21T21:36:15.550Z,2.50
2022-08-21T21:39:11.548Z,2.60
2022-08-21T21:42:00.293Z,2.50
2022-08-21T21:45:08.355Z,2.30
2022-08-21T21:48:04.810Z,2.50
2022-08-21T21:51:00.790Z,2.40
2022-08-21T21:54:04.102Z,2.30
2022-08-21T21:56:55.261Z,2.50
2022-08-21T21:59:52.480Z,2.60
2022-08-21T22:02:46.042Z,2.50
2022-08-21T22:05:48.997Z,3.00
2022-08-21T22:08:39.639Z,2.60
2022-08-21T22:11:38.439Z,2.40
2022-08-21T22:14:21.521Z,2.40
2022-08-21T22:17:01.773Z,2.20
2022-08-21T22:19:46.036Z,2.20
2022-08-21T22:22:29.670Z,2.10
2022-08-21T22:25:17.036Z,2.50
2022-08-21T22:28:05.004Z,2.10
2022-08-21T22:30:51.019Z,2.30
2022-08-21T22:33:31.661Z,2.30
2022-08-21T22:36:22.690Z,2.40
2022-08-21T22:38:59.611Z,2.10
2022-08-21T22:41:43.480Z,2.60
2022-08-21T22:44:28.767Z,2.30
2022-08-21T22:47:06.219Z,2.50
2022-08-21T22:49:52.170Z,2.60
2022-08-21T22:52:33.108Z,2.30
2022-08-21T22:55:30.243Z,2.40
2022-08-21T22:58:20.005Z,2.60
2022-08-21T23:01:05.279Z,2.80
2022-08-21T23:03:52.626Z,2.90
2022-08-21T23:06:38.207Z,3.00
2022-08-21T23:09:35.047Z,2.70
2022-08-21T23:12:34.117Z,3.00
2022-08-21T23:15:36.996Z,3.30
2022-08-21T23:18:27.724Z,3.10
2022-08-21T23:21:17.582Z,3.40
2022-08-21T23:24:19.682Z,3.70
2022-08-21T23:27:11.054Z,3.70
2022-08-21T23:29:58.899Z,4.00
2022-08-21T23:33:14.656Z,4.40
2022-08-21T23:36:23.294Z,4.20
2022-08-21T23:39:28.332Z,4.40
2022-08-21T23:42:20.986Z,4.70
2022-08-21T23:45:14.113Z,4.70
2022-08-21T23:48:08.763Z,4.90
2022-08-21T23:50:59.144Z,5.10
2022-08-21T23:53:55.557Z,5.40
2022-08-21T23:56:57.834Z,5.00
2022-08-21T23:59:53.230Z,5.40
